sensor_id;sensor_type;location;lat;lon;timestamp;temperature;humidity
5304;DHT22;2674;49.722;10.892;2023-09-30T00:00:44;15.40;1.00
5304;DHT22;2674;49.722;10.892;2023-09-30T00:03:10;15.40;1.00
5304;DHT22;2674;49.722;10.892;2023-09-30T00:05:37;15.40;1.00
5304;DHT22;2674;49.722;10.892;2023-09-30T00:08:06;15.30;1.00
5304;DHT22;2674;49.722;10.892;2023-09-30T00:10:32;15.20;1.00
5304;DHT22;2674;49.722;10.892;2023-09-30T00:12:58;15.20;1.00
5304;DHT22;2674;49.722;10.892;2023-09-30T00:15:26;15.10;20.50
5304;DHT22;2674;49.722;10.892;2023-09-30T00:17:52;15.00;92.60
5304;DHT22;2674;49.722;10.892;2023-09-30T00:20:18;15.00;99.90
5304;DHT22;2674;49.722;10.892;2023-09-30T00:22:44;14.90;99.90
5304;DHT22;2674;49.722;10.892;2023-09-30T00:25:10;14.90;99.90
5304;DHT22;2674;49.722;10.892;2023-09-30T00:27:36;15.00;99.90
5304;DHT22;2674;49.722;10.892;2023-09-30T00:30:03;15.00;99.90
5304;DHT22;2674;49.722;10.892;2023-09-30T00:32:31;15.10;99.90
5304;DHT22;2674;49.722;10.892;2023-09-30T00:34:58;15.10;99.90
5304;DHT22;2674;49.722;10.892;2023-09-30T00:37:24;15.10;99.90
5304;DHT22;2674;49.722;10.892;2023-09-30T00:39:50;15.20;99.90
5304;DHT22;2674;49.722;10.892;2023-09-30T00:42:16;15.20;99.90
5304;DHT22;2674;49.722;10.892;2023-09-30T00:44:42;15.30;99.90
5304;DHT22;2674;49.722;10.892;2023-09-30T00:47:07;15.30;99.90
5304;DHT22;2674;49.722;10.892;2023-09-30T00:49:35;15.40;99.90
5304;DHT22;2674;49.722;10.892;2023-09-30T00:52:02;15.40;99.90
5304;DHT22;2674;49.722;10.892;2023-09-30T00:54:29;15.30;99.90
5304;DHT22;2674;49.722;10.892;2023-09-30T00:56:56;15.50;99.90
5304;DHT22;2674;49.722;10.892;2023-09-30T00:59:23;15.50;99.90
5304;DHT22;2674;49.722;10.892;2023-09-30T01:01:52;15.50;99.90
5304;DHT22;2674;49.722;10.892;2023-09-30T01:04:19;15.60;99.90
5304;DHT22;2674;49.722;10.892;2023-09-30T01:06:46;15.60;99.90
5304;DHT22;2674;49.722;10.892;2023-09-30T01:09:13;15.60;99.90
5304;DHT22;2674;49.722;10.892;2023-09-30T01:11:39;15.60;99.90
5304;DHT22;2674;49.722;10.892;2023-09-30T01:14:33;15.60;99.90
5304;DHT22;2674;49.722;10.892;2023-09-30T01:17:04;15.60;99.90
5304;DHT22;2674;49.722;10.892;2023-09-30T01:19:32;15.70;99.90
5304;DHT22;2674;49.722;10.892;2023-09-30T01:21:58;15.70;99.90
5304;DHT22;2674;49.722;10.892;2023-09-30T01:24:38;15.70;99.90
5304;DHT22;2674;49.722;10.892;2023-09-30T01:27:04;15.70;99.90
5304;DHT22;2674;49.722;10.892;2023-09-30T01:29:29;15.80;99.90
5304;DHT22;2674;49.722;10.892;2023-09-30T01:31:55;15.80;99.90
5304;DHT22;2674;49.722;10.892;2023-09-30T01:34:21;15.80;99.90
5304;DHT22;2674;49.722;10.892;2023-09-30T01:36:47;15.80;99.90
5304;DHT22;2674;49.722;10.892;2023-09-30T01:39:14;15.90;99.90
5304;DHT22;2674;49.722;10.892;2023-09-30T01:41:40;15.90;99.90
5304;DHT22;2674;49.722;10.892;2023-09-30T01:44:06;15.90;99.90
5304;DHT22;2674;49.722;10.892;2023-09-30T01:46:33;15.90;99.90
5304;DHT22;2674;49.722;10.892;2023-09-30T01:48:59;15.90;99.90
5304;DHT22;2674;49.722;10.892;2023-09-30T01:51:24;15.90;99.90
5304;DHT22;2674;49.722;10.892;2023-09-30T01:53:50;15.90;99.90
5304;DHT22;2674;49.722;10.892;2023-09-30T01:56:16;15.80;99.90
5304;DHT22;2674;49.722;10.892;2023-09-30T01:58:42;15.80;99.90
5304;DHT22;2674;49.722;10.892;2023-09-30T02:01:09;15.80;99.90
5304;DHT22;2674;49.722;10.892;2023-09-30T02:03:35;15.80;99.90
5304;DHT22;2674;49.722;10.892;2023-09-30T02:06:00;15.80;99.90
5304;DHT22;2674;49.722;10.892;2023-09-30T02:08:26;15.80;99.90
5304;DHT22;2674;49.722;10.892;2023-09-30T02:10:52;15.70;99.90
5304;DHT22;2674;49.722;10.892;2023-09-30T02:13:18;15.70;99.90
5304;DHT22;2674;49.722;10.892;2023-09-30T02:15:44;15.70;99.90
5304;DHT22;2674;49.722;10.892;2023-09-30T02:18:10;15.70;99.90
5304;DHT22;2674;49.722;10.892;2023-09-30T02:20:39;15.70;99.90
5304;DHT22;2674;49.722;10.892;2023-09-30T02:23:06;15.60;99.90
5304;DHT22;2674;49.722;10.892;2023-09-30T02:25:32;15.60;99.90
5304;DHT22;2674;49.722;10.892;2023-09-30T02:27:59;15.60;99.90
5304;DHT22;2674;49.722;10.892;2023-09-30T02:30:26;15.50;99.90
5304;DHT22;2674;49.722;10.892;2023-09-30T02:32:53;15.50;99.90
5304;DHT22;2674;49.722;10.892;2023-09-30T02:35:19;15.40;99.90
5304;DHT22;2674;49.722;10.892;2023-09-30T02:37:46;15.40;99.90
5304;DHT22;2674;49.722;10.892;2023-09-30T02:40:11;15.40;99.90
5304;DHT22;2674;49.722;10.892;2023-09-30T02:42:40;15.30;99.90
5304;DHT22;2674;49.722;10.892;2023-09-30T02:45:07;15.30;99.90
5304;DHT22;2674;49.722;10.892;2023-09-30T02:47:37;15.30;99.90
5304;DHT22;2674;49.722;10.892;2023-09-30T02:50:05;15.20;99.90
5304;DHT22;2674;49.722;10.892;2023-09-30T02:52:31;15.20;99.90
5304;DHT22;2674;49.722;10.892;2023-09-30T02:54:58;15.10;99.90
5304;DHT22;2674;49.722;10.892;2023-09-30T02:57:24;15.10;99.90
5304;DHT22;2674;49.722;10.892;2023-09-30T02:59:50;15.00;99.90
5304;DHT22;2674;49.722;10.892;2023-09-30T03:02:20;14.90;99.90
5304;DHT22;2674;49.722;10.892;2023-09-30T03:04:47;14.80;99.90
5304;DHT22;2674;49.722;10.892;2023-09-30T03:07:20;14.70;99.90
5304;DHT22;2674;49.722;10.892;2023-09-30T03:09:46;14.70;99.90
5304;DHT22;2674;49.722;10.892;2023-09-30T03:12:14;14.60;99.90
5304;DHT22;2674;49.722;10.892;2023-09-30T03:14:39;14.60;99.90
5304;DHT22;2674;49.722;10.892;2023-09-30T03:17:05;14.60;99.90
5304;DHT22;2674;49.722;10.892;2023-09-30T03:19:37;14.60;99.90
5304;DHT22;2674;49.722;10.892;2023-09-30T03:22:03;14.50;99.90
5304;DHT22;2674;49.722;10.892;2023-09-30T03:24:31;14.50;99.90
5304;DHT22;2674;49.722;10.892;2023-09-30T03:26:57;14.60;99.90
5304;DHT22;2674;49.722;10.892;2023-09-30T03:29:23;14.60;99.90
5304;DHT22;2674;49.722;10.892;2023-09-30T03:31:49;14.60;99.90
5304;DHT22;2674;49.722;10.892;2023-09-30T03:34:15;14.50;99.90
5304;DHT22;2674;49.722;10.892;2023-09-30T03:36:42;14.60;99.90
5304;DHT22;2674;49.722;10.892;2023-09-30T03:39:08;14.50;99.90
5304;DHT22;2674;49.722;10.892;2023-09-30T03:41:34;14.50;99.90
5304;DHT22;2674;49.722;10.892;2023-09-30T03:44:03;14.50;99.90
5304;DHT22;2674;49.722;10.892;2023-09-30T03:46:29;14.50;99.90
5304;DHT22;2674;49.722;10.892;2023-09-30T03:48:56;14.50;99.90
5304;DHT22;2674;49.722;10.892;2023-09-30T03:51:21;14.50;99.90
5304;DHT22;2674;49.722;10.892;2023-09-30T03:53:50;14.40;99.90
5304;DHT22;2674;49.722;10.892;2023-09-30T03:56:16;14.30;99.90
5304;DHT22;2674;49.722;10.892;2023-09-30T03:58:43;14.30;99.90
5304;DHT22;2674;49.722;10.892;2023-09-30T04:01:10;14.30;99.90
5304;DHT22;2674;49.722;10.892;2023-09-30T04:03:39;14.30;99.90
5304;DHT22;2674;49.722;10.892;2023-09-30T04:06:06;14.20;99.90
5304;DHT22;2674;49.722;10.892;2023-09-30T04:08:34;14.20;99.90
5304;DHT22;2674;49.722;10.892;2023-09-30T04:11:04;14.20;99.90
5304;DHT22;2674;49.722;10.892;2023-09-30T04:13:30;14.10;99.90
5304;DHT22;2674;49.722;10.892;2023-09-30T04:15:56;14.10;99.90
5304;DHT22;2674;49.722;10.892;2023-09-30T04:18:27;14.10;99.90
5304;DHT22;2674;49.722;10.892;2023-09-30T04:20:53;14.10;99.90
5304;DHT22;2674;49.722;10.892;2023-09-30T04:23:19;14.10;99.90
5304;DHT22;2674;49.722;10.892;2023-09-30T04:25:47;14.10;99.90
5304;DHT22;2674;49.722;10.892;2023-09-30T04:28:13;14.20;99.90
5304;DHT22;2674;49.722;10.892;2023-09-30T04:30:40;14.10;99.90
5304;DHT22;2674;49.722;10.892;2023-09-30T04:33:06;14.10;99.90
5304;DHT22;2674;49.722;10.892;2023-09-30T04:35:33;14.10;99.90
5304;DHT22;2674;49.722;10.892;2023-09-30T04:38:01;14.10;99.90
5304;DHT22;2674;49.722;10.892;2023-09-30T04:40:27;14.10;99.90
5304;DHT22;2674;49.722;10.892;2023-09-30T04:42:56;14.10;99.90
5304;DHT22;2674;49.722;10.892;2023-09-30T04:45:27;14.10;99.90
5304;DHT22;2674;49.722;10.892;2023-09-30T04:47:54;14.10;99.90
5304;DHT22;2674;49.722;10.892;2023-09-30T04:50:21;14.10;99.90
5304;DHT22;2674;49.722;10.892;2023-09-30T04:52:48;14.10;99.90
5304;DHT22;2674;49.722;10.892;2023-09-30T04:55:14;14.10;99.90
5304;DHT22;2674;49.722;10.892;2023-09-30T04:57:45;14.10;99.90
5304;DHT22;2674;49.722;10.892;2023-09-30T05:00:14;14.10;99.90
5304;DHT22;2674;49.722;10.892;2023-09-30T05:02:40;14.10;99.90
5304;DHT22;2674;49.722;10.892;2023-09-30T05:05:06;14.10;99.90
5304;DHT22;2674;49.722;10.892;2023-09-30T05:07:32;14.10;99.90
5304;DHT22;2674;49.722;10.892;2023-09-30T05:09:58;14.10;99.90
5304;DHT22;2674;49.722;10.892;2023-09-30T05:12:31;14.10;99.90
5304;DHT22;2674;49.722;10.892;2023-09-30T05:14:59;14.10;99.90
5304;DHT22;2674;49.722;10.892;2023-09-30T05:17:24;14.20;99.90
5304;DHT22;2674;49.722;10.892;2023-09-30T05:19:50;14.20;99.90
5304;DHT22;2674;49.722;10.892;2023-09-30T05:22:16;14.20;99.90
5304;DHT22;2674;49.722;10.892;2023-09-30T05:24:44;14.20;99.90
5304;DHT22;2674;49.722;10.892;2023-09-30T05:27:10;14.20;99.90
5304;DHT22;2674;49.722;10.892;2023-09-30T05:29:36;14.20;99.90
5304;DHT22;2674;49.722;10.892;2023-09-30T05:32:01;14.20;99.90
5304;DHT22;2674;49.722;10.892;2023-09-30T05:34:28;14.20;99.90
5304;DHT22;2674;49.722;10.892;2023-09-30T05:36:54;14.30;99.90
5304;DHT22;2674;49.722;10.892;2023-09-30T05:39:20;14.30;99.90
5304;DHT22;2674;49.722;10.892;2023-09-30T05:41:46;14.30;99.90
5304;DHT22;2674;49.722;10.892;2023-09-30T05:44:12;14.30;99.90
5304;DHT22;2674;49.722;10.892;2023-09-30T05:46:40;14.30;99.90
5304;DHT22;2674;49.722;10.892;2023-09-30T05:49:06;14.30;99.90
5304;DHT22;2674;49.722;10.892;2023-09-30T05:51:36;14.30;99.90
5304;DHT22;2674;49.722;10.892;2023-09-30T05:54:02;14.30;99.90
5304;DHT22;2674;49.722;10.892;2023-09-30T05:56:30;14.30;99.90
5304;DHT22;2674;49.722;10.892;2023-09-30T05:58:56;14.40;99.90
5304;DHT22;2674;49.722;10.892;2023-09-30T06:01:22;14.40;99.90
5304;DHT22;2674;49.722;10.892;2023-09-30T06:03:48;14.40;99.90
5304;DHT22;2674;49.722;10.892;2023-09-30T06:06:15;14.40;99.90
5304;DHT22;2674;49.722;10.892;2023-09-30T06:08:42;14.40;99.90
5304;DHT22;2674;49.722;10.892;2023-09-30T06:11:18;14.40;99.90
5304;DHT22;2674;49.722;10.892;2023-09-30T06:13:45;14.40;99.90
5304;DHT22;2674;49.722;10.892;2023-09-30T06:16:14;14.40;99.90
5304;DHT22;2674;49.722;10.892;2023-09-30T06:18:41;14.40;99.90
5304;DHT22;2674;49.722;10.892;2023-09-30T06:21:07;14.30;99.90
5304;DHT22;2674;49.722;10.892;2023-09-30T06:23:35;14.20;99.90
5304;DHT22;2674;49.722;10.892;2023-09-30T06:26:01;14.20;99.90
5304;DHT22;2674;49.722;10.892;2023-09-30T06:28:29;14.20;99.90
5304;DHT22;2674;49.722;10.892;2023-09-30T06:30:59;14.10;99.90
5304;DHT22;2674;49.722;10.892;2023-09-30T06:33:25;14.10;99.90
5304;DHT22;2674;49.722;10.892;2023-09-30T06:35:54;14.10;99.90
5304;DHT22;2674;49.722;10.892;2023-09-30T06:38:20;14.00;99.90
5304;DHT22;2674;49.722;10.892;2023-09-30T06:40:47;14.00;99.90
5304;DHT22;2674;49.722;10.892;2023-09-30T06:43:16;13.90;99.90
5304;DHT22;2674;49.722;10.892;2023-09-30T06:45:42;13.80;99.90
5304;DHT22;2674;49.722;10.892;2023-09-30T06:48:09;13.90;99.90
5304;DHT22;2674;49.722;10.892;2023-09-30T06:50:45;13.80;99.90
5304;DHT22;2674;49.722;10.892;2023-09-30T06:53:11;13.80;99.90
5304;DHT22;2674;49.722;10.892;2023-09-30T06:55:39;13.80;99.90
5304;DHT22;2674;49.722;10.892;2023-09-30T06:58:05;13.80;99.90
5304;DHT22;2674;49.722;10.892;2023-09-30T07:00:34;13.70;99.90
5304;DHT22;2674;49.722;10.892;2023-09-30T07:03:01;13.90;99.90
5304;DHT22;2674;49.722;10.892;2023-09-30T07:05:27;13.90;99.90
5304;DHT22;2674;49.722;10.892;2023-09-30T07:07:54;13.90;99.90
5304;DHT22;2674;49.722;10.892;2023-09-30T07:10:20;14.00;99.90
5304;DHT22;2674;49.722;10.892;2023-09-30T07:12:46;14.10;99.90
5304;DHT22;2674;49.722;10.892;2023-09-30T07:15:12;14.20;99.90
5304;DHT22;2674;49.722;10.892;2023-09-30T07:17:40;14.30;99.90
5304;DHT22;2674;49.722;10.892;2023-09-30T07:20:07;14.30;99.90
5304;DHT22;2674;49.722;10.892;2023-09-30T07:22:36;14.50;99.90
5304;DHT22;2674;49.722;10.892;2023-09-30T07:25:02;14.50;99.90
5304;DHT22;2674;49.722;10.892;2023-09-30T07:27:29;14.40;99.90
5304;DHT22;2674;49.722;10.892;2023-09-30T07:29:55;14.40;99.90
5304;DHT22;2674;49.722;10.892;2023-09-30T07:32:21;14.40;99.90
5304;DHT22;2674;49.722;10.892;2023-09-30T07:34:49;14.40;99.90
5304;DHT22;2674;49.722;10.892;2023-09-30T07:37:15;14.30;99.90
5304;DHT22;2674;49.722;10.892;2023-09-30T07:39:45;14.30;99.90
5304;DHT22;2674;49.722;10.892;2023-09-30T07:42:11;14.30;99.90
5304;DHT22;2674;49.722;10.892;2023-09-30T07:44:37;14.40;99.90
5304;DHT22;2674;49.722;10.892;2023-09-30T07:47:04;14.40;99.90
5304;DHT22;2674;49.722;10.892;2023-09-30T07:49:34;14.40;99.90
5304;DHT22;2674;49.722;10.892;2023-09-30T07:52:00;14.50;99.90
5304;DHT22;2674;49.722;10.892;2023-09-30T07:54:26;14.50;99.90
5304;DHT22;2674;49.722;10.892;2023-09-30T07:56:52;14.60;99.90
5304;DHT22;2674;49.722;10.892;2023-09-30T07:59:18;14.60;99.90
5304;DHT22;2674;49.722;10.892;2023-09-30T08:01:45;14.60;99.90
5304;DHT22;2674;49.722;10.892;2023-09-30T08:04:12;14.50;99.90
5304;DHT22;2674;49.722;10.892;2023-09-30T08:06:37;14.50;99.90
5304;DHT22;2674;49.722;10.892;2023-09-30T08:09:03;14.50;99.90
5304;DHT22;2674;49.722;10.892;2023-09-30T08:11:35;14.40;99.90
5304;DHT22;2674;49.722;10.892;2023-09-30T08:14:05;14.50;99.90
5304;DHT22;2674;49.722;10.892;2023-09-30T08:16:38;14.40;99.90
5304;DHT22;2674;49.722;10.892;2023-09-30T08:19:04;14.50;99.90
5304;DHT22;2674;49.722;10.892;2023-09-30T08:21:30;14.60;99.90
5304;DHT22;2674;49.722;10.892;2023-09-30T08:23:59;14.60;99.90
5304;DHT22;2674;49.722;10.892;2023-09-30T08:26:25;14.60;99.90
5304;DHT22;2674;49.722;10.892;2023-09-30T08:28:51;14.70;99.90
5304;DHT22;2674;49.722;10.892;2023-09-30T08:31:17;14.80;99.90
5304;DHT22;2674;49.722;10.892;2023-09-30T08:33:43;14.90;99.90
5304;DHT22;2674;49.722;10.892;2023-09-30T08:36:11;15.00;99.90
5304;DHT22;2674;49.722;10.892;2023-09-30T08:38:39;15.10;99.90
5304;DHT22;2674;49.722;10.892;2023-09-30T08:41:06;15.10;99.90
5304;DHT22;2674;49.722;10.892;2023-09-30T08:43:40;15.30;99.90
5304;DHT22;2674;49.722;10.892;2023-09-30T08:46:07;15.40;99.90
5304;DHT22;2674;49.722;10.892;2023-09-30T08:48:33;15.40;99.90
5304;DHT22;2674;49.722;10.892;2023-09-30T08:51:01;15.40;99.90
5304;DHT22;2674;49.722;10.892;2023-09-30T08:53:29;15.40;99.90
5304;DHT22;2674;49.722;10.892;2023-09-30T08:55:56;15.40;99.90
5304;DHT22;2674;49.722;10.892;2023-09-30T08:58:28;15.40;99.90
5304;DHT22;2674;49.722;10.892;2023-09-30T09:00:55;15.40;99.90
5304;DHT22;2674;49.722;10.892;2023-09-30T09:03:22;15.40;95.20
5304;DHT22;2674;49.722;10.892;2023-09-30T09:05:56;15.50;99.90
5304;DHT22;2674;49.722;10.892;2023-09-30T09:08:26;15.50;84.20
5304;DHT22;2674;49.722;10.892;2023-09-30T09:10:57;15.50;99.90
5304;DHT22;2674;49.722;10.892;2023-09-30T09:13:24;15.70;94.30
5304;DHT22;2674;49.722;10.892;2023-09-30T09:16:04;15.80;70.90
5304;DHT22;2674;49.722;10.892;2023-09-30T09:18:34;15.90;72.90
5304;DHT22;2674;49.722;10.892;2023-09-30T09:21:14;16.00;84.70
5304;DHT22;2674;49.722;10.892;2023-09-30T09:23:45;16.20;93.60
5304;DHT22;2674;49.722;10.892;2023-09-30T09:26:12;16.30;1.00
5304;DHT22;2674;49.722;10.892;2023-09-30T09:28:50;16.50;1.00
5304;DHT22;2674;49.722;10.892;2023-09-30T09:31:23;16.60;1.00
5304;DHT22;2674;49.722;10.892;2023-09-30T09:33:50;16.60;1.00
5304;DHT22;2674;49.722;10.892;2023-09-30T09:36:17;16.70;1.00
5304;DHT22;2674;49.722;10.892;2023-09-30T09:38:50;16.80;1.00
5304;DHT22;2674;49.722;10.892;2023-09-30T09:41:19;16.80;1.00
5304;DHT22;2674;49.722;10.892;2023-09-30T09:43:49;16.90;1.00
5304;DHT22;2674;49.722;10.892;2023-09-30T09:46:17;16.90;1.00
5304;DHT22;2674;49.722;10.892;2023-09-30T09:48:45;16.80;1.00
5304;DHT22;2674;49.722;10.892;2023-09-30T09:51:14;16.80;1.00
5304;DHT22;2674;49.722;10.892;2023-09-30T09:53:41;16.90;1.00
5304;DHT22;2674;49.722;10.892;2023-09-30T09:56:10;16.90;1.00
5304;DHT22;2674;49.722;10.892;2023-09-30T09:58:40;16.90;1.00
5304;DHT22;2674;49.722;10.892;2023-09-30T10:01:09;17.00;1.00
5304;DHT22;2674;49.722;10.892;2023-09-30T10:03:36;17.00;1.00
5304;DHT22;2674;49.722;10.892;2023-09-30T10:06:02;17.00;99.90
5304;DHT22;2674;49.722;10.892;2023-09-30T10:08:35;17.00;1.00
5304;DHT22;2674;49.722;10.892;2023-09-30T10:11:02;17.00;1.00
5304;DHT22;2674;49.722;10.892;2023-09-30T10:13:50;17.00;99.90
5304;DHT22;2674;49.722;10.892;2023-09-30T10:19:15;17.30;99.90
5304;DHT22;2674;49.722;10.892;2023-09-30T10:24:46;17.40;99.90
5304;DHT22;2674;49.722;10.892;2023-09-30T10:29:48;17.50;1.00
5304;DHT22;2674;49.722;10.892;2023-09-30T10:32:15;17.60;99.90
5304;DHT22;2674;49.722;10.892;2023-09-30T10:34:51;17.60;99.90
5304;DHT22;2674;49.722;10.892;2023-09-30T10:37:24;17.60;1.00
5304;DHT22;2674;49.722;10.892;2023-09-30T10:39:57;17.70;45.10
5304;DHT22;2674;49.722;10.892;2023-09-30T10:42:49;17.80;99.90
5304;DHT22;2674;49.722;10.892;2023-09-30T10:51:00;18.10;1.00
5304;DHT22;2674;49.722;10.892;2023-09-30T10:53:28;18.10;1.00
5304;DHT22;2674;49.722;10.892;2023-09-30T10:55:58;18.00;1.00
5304;DHT22;2674;49.722;10.892;2023-09-30T10:58:47;18.10;1.00
5304;DHT22;2674;49.722;10.892;2023-09-30T11:01:19;18.10;1.00
5304;DHT22;2674;49.722;10.892;2023-09-30T11:03:47;18.30;1.00
5304;DHT22;2674;49.722;10.892;2023-09-30T11:06:14;18.40;1.00
5304;DHT22;2674;49.722;10.892;2023-09-30T11:08:58;18.40;1.00
5304;DHT22;2674;49.722;10.892;2023-09-30T11:16:51;18.40;1.00
5304;DHT22;2674;49.722;10.892;2023-09-30T11:19:18;18.50;1.00
5304;DHT22;2674;49.722;10.892;2023-09-30T11:21:49;18.60;1.00
5304;DHT22;2674;49.722;10.892;2023-09-30T11:24:15;18.70;1.00
5304;DHT22;2674;49.722;10.892;2023-09-30T11:26:41;18.70;1.00
5304;DHT22;2674;49.722;10.892;2023-09-30T11:29:09;18.70;1.00
5304;DHT22;2674;49.722;10.892;2023-09-30T11:31:46;18.80;1.00
5304;DHT22;2674;49.722;10.892;2023-09-30T11:34:13;18.70;1.00
5304;DHT22;2674;49.722;10.892;2023-09-30T11:36:40;18.70;1.00
5304;DHT22;2674;49.722;10.892;2023-09-30T11:39:10;18.70;1.00
5304;DHT22;2674;49.722;10.892;2023-09-30T11:41:46;18.80;1.00
5304;DHT22;2674;49.722;10.892;2023-09-30T11:44:12;18.90;1.00
5304;DHT22;2674;49.722;10.892;2023-09-30T11:46:53;18.90;1.00
5304;DHT22;2674;49.722;10.892;2023-09-30T11:51:58;18.60;1.00
5304;DHT22;2674;49.722;10.892;2023-09-30T11:54:31;18.60;1.00
5304;DHT22;2674;49.722;10.892;2023-09-30T11:57:01;18.80;1.00
5304;DHT22;2674;49.722;10.892;2023-09-30T11:59:28;19.00;1.00
5304;DHT22;2674;49.722;10.892;2023-09-30T12:01:55;19.10;1.00
5304;DHT22;2674;49.722;10.892;2023-09-30T12:04:20;19.20;1.00
5304;DHT22;2674;49.722;10.892;2023-09-30T12:06:47;19.30;1.00
5304;DHT22;2674;49.722;10.892;2023-09-30T12:09:14;19.40;1.00
5304;DHT22;2674;49.722;10.892;2023-09-30T12:11:41;19.30;1.00
5304;DHT22;2674;49.722;10.892;2023-09-30T12:14:10;19.40;1.00
5304;DHT22;2674;49.722;10.892;2023-09-30T12:16:37;19.50;1.00
5304;DHT22;2674;49.722;10.892;2023-09-30T12:19:03;19.40;1.00
5304;DHT22;2674;49.722;10.892;2023-09-30T12:21:34;19.50;1.00
5304;DHT22;2674;49.722;10.892;2023-09-30T12:24:03;19.50;1.00
5304;DHT22;2674;49.722;10.892;2023-09-30T12:26:33;19.60;1.00
5304;DHT22;2674;49.722;10.892;2023-09-30T12:28:58;19.70;1.00
5304;DHT22;2674;49.722;10.892;2023-09-30T12:31:25;19.70;1.00
5304;DHT22;2674;49.722;10.892;2023-09-30T12:33:51;19.90;1.00
5304;DHT22;2674;49.722;10.892;2023-09-30T12:36:18;20.00;1.00
5304;DHT22;2674;49.722;10.892;2023-09-30T12:38:44;19.80;1.00
5304;DHT22;2674;49.722;10.892;2023-09-30T12:41:10;19.90;1.00
5304;DHT22;2674;49.722;10.892;2023-09-30T12:43:37;19.90;1.00
5304;DHT22;2674;49.722;10.892;2023-09-30T12:46:03;19.90;1.00
5304;DHT22;2674;49.722;10.892;2023-09-30T12:48:30;19.90;1.00
5304;DHT22;2674;49.722;10.892;2023-09-30T12:50:56;20.00;1.00
5304;DHT22;2674;49.722;10.892;2023-09-30T12:53:22;19.90;1.00
5304;DHT22;2674;49.722;10.892;2023-09-30T12:55:47;19.90;1.00
5304;DHT22;2674;49.722;10.892;2023-09-30T12:58:13;20.00;1.00
5304;DHT22;2674;49.722;10.892;2023-09-30T13:00:40;20.10;1.00
5304;DHT22;2674;49.722;10.892;2023-09-30T13:03:06;20.10;1.00
5304;DHT22;2674;49.722;10.892;2023-09-30T13:05:33;19.90;1.00
5304;DHT22;2674;49.722;10.892;2023-09-30T13:07:59;19.90;1.00
5304;DHT22;2674;49.722;10.892;2023-09-30T13:10:25;19.90;1.00
5304;DHT22;2674;49.722;10.892;2023-09-30T13:12:51;20.00;1.00
5304;DHT22;2674;49.722;10.892;2023-09-30T13:15:19;20.00;1.00
5304;DHT22;2674;49.722;10.892;2023-09-30T13:17:45;20.10;1.00
5304;DHT22;2674;49.722;10.892;2023-09-30T13:20:11;20.00;1.00
5304;DHT22;2674;49.722;10.892;2023-09-30T13:22:38;20.10;1.00
5304;DHT22;2674;49.722;10.892;2023-09-30T13:25:07;20.10;1.00
5304;DHT22;2674;49.722;10.892;2023-09-30T13:27:34;20.20;1.00
5304;DHT22;2674;49.722;10.892;2023-09-30T13:30:00;20.10;1.00
5304;DHT22;2674;49.722;10.892;2023-09-30T13:32:27;20.10;1.00
5304;DHT22;2674;49.722;10.892;2023-09-30T13:34:53;20.00;1.00
5304;DHT22;2674;49.722;10.892;2023-09-30T13:37:20;19.80;1.00
5304;DHT22;2674;49.722;10.892;2023-09-30T13:39:45;19.70;1.00
5304;DHT22;2674;49.722;10.892;2023-09-30T13:42:11;19.70;1.00
5304;DHT22;2674;49.722;10.892;2023-09-30T13:44:37;19.70;1.00
5304;DHT22;2674;49.722;10.892;2023-09-30T13:47:03;19.70;1.00
5304;DHT22;2674;49.722;10.892;2023-09-30T13:49:32;19.70;1.00
5304;DHT22;2674;49.722;10.892;2023-09-30T13:51:59;19.80;1.00
5304;DHT22;2674;49.722;10.892;2023-09-30T13:54:25;19.70;1.00
5304;DHT22;2674;49.722;10.892;2023-09-30T13:56:50;19.90;1.00
5304;DHT22;2674;49.722;10.892;2023-09-30T13:59:16;19.90;1.00
5304;DHT22;2674;49.722;10.892;2023-09-30T14:01:42;19.90;1.00
5304;DHT22;2674;49.722;10.892;2023-09-30T14:04:08;20.20;1.00
5304;DHT22;2674;49.722;10.892;2023-09-30T14:06:35;20.10;1.00
5304;DHT22;2674;49.722;10.892;2023-09-30T14:09:02;20.10;1.00
5304;DHT22;2674;49.722;10.892;2023-09-30T14:11:28;20.20;1.00
5304;DHT22;2674;49.722;10.892;2023-09-30T14:13:56;20.30;1.00
5304;DHT22;2674;49.722;10.892;2023-09-30T14:16:21;20.30;1.00
5304;DHT22;2674;49.722;10.892;2023-09-30T14:18:47;20.40;1.00
5304;DHT22;2674;49.722;10.892;2023-09-30T14:21:14;20.40;1.00
5304;DHT22;2674;49.722;10.892;2023-09-30T14:23:40;20.30;1.00
5304;DHT22;2674;49.722;10.892;2023-09-30T14:26:05;20.10;1.00
5304;DHT22;2674;49.722;10.892;2023-09-30T14:28:37;20.10;1.00
5304;DHT22;2674;49.722;10.892;2023-09-30T14:31:04;20.10;1.00
5304;DHT22;2674;49.722;10.892;2023-09-30T14:33:30;20.10;1.00
5304;DHT22;2674;49.722;10.892;2023-09-30T14:35:55;20.10;1.00
5304;DHT22;2674;49.722;10.892;2023-09-30T14:38:22;20.10;1.00
5304;DHT22;2674;49.722;10.892;2023-09-30T14:40:48;20.10;1.00
5304;DHT22;2674;49.722;10.892;2023-09-30T14:43:15;20.10;1.00
5304;DHT22;2674;49.722;10.892;2023-09-30T14:45:42;20.00;1.00
5304;DHT22;2674;49.722;10.892;2023-09-30T14:48:08;19.90;1.00
5304;DHT22;2674;49.722;10.892;2023-09-30T14:50:37;19.90;1.00
5304;DHT22;2674;49.722;10.892;2023-09-30T14:53:03;19.80;1.00
5304;DHT22;2674;49.722;10.892;2023-09-30T14:55:31;19.70;1.00
5304;DHT22;2674;49.722;10.892;2023-09-30T14:57:57;19.60;1.00
5304;DHT22;2674;49.722;10.892;2023-09-30T15:00:23;19.50;1.00
5304;DHT22;2674;49.722;10.892;2023-09-30T15:02:50;19.40;1.00
5304;DHT22;2674;49.722;10.892;2023-09-30T15:05:16;19.30;1.00
5304;DHT22;2674;49.722;10.892;2023-09-30T15:07:43;19.40;1.00
5304;DHT22;2674;49.722;10.892;2023-09-30T15:10:09;19.50;1.00
5304;DHT22;2674;49.722;10.892;2023-09-30T15:12:35;19.60;1.00
5304;DHT22;2674;49.722;10.892;2023-09-30T15:15:01;19.70;1.00
5304;DHT22;2674;49.722;10.892;2023-09-30T15:17:27;19.50;1.00
5304;DHT22;2674;49.722;10.892;2023-09-30T15:19:55;19.50;1.00
5304;DHT22;2674;49.722;10.892;2023-09-30T15:22:21;19.40;1.00
5304;DHT22;2674;49.722;10.892;2023-09-30T15:24:47;19.30;1.00
5304;DHT22;2674;49.722;10.892;2023-09-30T15:27:12;19.20;1.00
5304;DHT22;2674;49.722;10.892;2023-09-30T15:29:38;19.20;1.00
5304;DHT22;2674;49.722;10.892;2023-09-30T15:32:04;19.10;1.00
5304;DHT22;2674;49.722;10.892;2023-09-30T15:34:30;19.00;1.00
5304;DHT22;2674;49.722;10.892;2023-09-30T15:36:56;19.00;1.00
5304;DHT22;2674;49.722;10.892;2023-09-30T15:39:23;19.00;1.00
5304;DHT22;2674;49.722;10.892;2023-09-30T15:41:48;19.00;1.00
5304;DHT22;2674;49.722;10.892;2023-09-30T15:44:14;19.00;1.00
5304;DHT22;2674;49.722;10.892;2023-09-30T15:46:40;18.90;1.00
5304;DHT22;2674;49.722;10.892;2023-09-30T15:49:05;18.80;1.00
5304;DHT22;2674;49.722;10.892;2023-09-30T15:51:31;18.80;1.00
5304;DHT22;2674;49.722;10.892;2023-09-30T15:53:57;18.80;1.00
5304;DHT22;2674;49.722;10.892;2023-09-30T15:56:23;18.90;1.00
5304;DHT22;2674;49.722;10.892;2023-09-30T15:58:49;19.00;1.00
5304;DHT22;2674;49.722;10.892;2023-09-30T16:01:15;19.00;1.00
5304;DHT22;2674;49.722;10.892;2023-09-30T16:03:40;19.00;1.00
5304;DHT22;2674;49.722;10.892;2023-09-30T16:06:08;19.00;1.00
5304;DHT22;2674;49.722;10.892;2023-09-30T16:08:34;19.00;1.00
5304;DHT22;2674;49.722;10.892;2023-09-30T16:10:59;18.80;1.00
5304;DHT22;2674;49.722;10.892;2023-09-30T16:13:25;18.70;1.00
5304;DHT22;2674;49.722;10.892;2023-09-30T16:15:51;18.50;1.00